sensor_id;sensor_type;location;lat;lon;timestamp;pressure;altitude;pressure_sealevel;temperature;humidity
58662;BME280;44432;49.786;22.760;2023-02-03T00:01:03;99462.64;;;1.14;84.15
58662;BME280;44432;49.786;22.760;2023-02-03T00:03:35;99469.98;;;1.16;84.29
58662;BME280;44432;49.786;22.760;2023-02-03T00:06:06;99467.40;;;1.15;84.28
58662;BME280;44432;49.786;22.760;2023-02-03T00:08:38;99470.45;;;1.14;83.88
58662;BME280;44432;49.786;22.760;2023-02-03T00:11:09;99474.34;;;1.14;83.91
58662;BME280;44432;49.786;22.760;2023-02-03T00:13:40;99480.45;;;1.11;84.02
58662;BME280;44432;49.786;22.760;2023-02-03T00:16:10;99483.20;;;1.10;84.10
58662;BME280;44432;49.786;22.760;2023-02-03T00:18:41;99483.15;;;1.08;83.95
58662;BME280;44432;49.786;22.760;2023-02-03T00:21:12;99480.52;;;1.07;83.97
58662;BME280;44432;49.786;22.760;2023-02-03T00:23:43;99486.61;;;1.07;83.94
58662;BME280;44432;49.786;22.760;2023-02-03T00:26:15;99494.17;;;1.06;83.97
58662;BME280;44432;49.786;22.760;2023-02-03T00:28:46;99495.45;;;1.03;83.82
58662;BME280;44432;49.786;22.760;2023-02-03T00:31:18;99497.84;;;1.02;83.84
58662;BME280;44432;49.786;22.760;2023-02-03T00:33:53;99508.19;;;1.01;83.94
58662;BME280;44432;49.786;22.760;2023-02-03T00:36:25;99505.68;;;1.00;83.94
58662;BME280;44432;49.786;22.760;2023-02-03T00:38:56;99508.85;;;0.99;83.92
58662;BME280;44432;49.786;22.760;2023-02-03T00:41:29;99512.06;;;0.98;83.68
58662;BME280;44432;49.786;22.760;2023-02-03T00:44:01;99520.06;;;0.98;83.85
58662;BME280;44432;49.786;22.760;2023-02-03T00:46:32;99523.42;;;0.97;83.96
58662;BME280;44432;49.786;22.760;2023-02-03T00:49:05;99522.93;;;0.97;83.81
58662;BME280;44432;49.786;22.760;2023-02-03T00:51:35;99529.66;;;0.97;83.98
58662;BME280;44432;49.786;22.760;2023-02-03T00:54:06;99532.04;;;0.97;83.90
58662;BME280;44432;49.786;22.760;2023-02-03T00:56:37;99533.88;;;0.96;83.78
58662;BME280;44432;49.786;22.760;2023-02-03T00:59:08;99538.98;;;0.95;83.82
58662;BME280;44432;49.786;22.760;2023-02-03T01:01:39;99546.12;;;0.95;83.99
58662;BME280;44432;49.786;22.760;2023-02-03T01:04:09;99551.48;;;0.93;83.87
58662;BME280;44432;49.786;22.760;2023-02-03T01:06:41;99553.94;;;0.92;84.03
58662;BME280;44432;49.786;22.760;2023-02-03T01:09:12;99555.15;;;0.89;83.98
58662;BME280;44432;49.786;22.760;2023-02-03T01:11:43;99557.77;;;0.89;84.05
58662;BME280;44432;49.786;22.760;2023-02-03T01:14:13;99564.54;;;0.89;83.97
58662;BME280;44432;49.786;22.760;2023-02-03T01:16:44;99563.16;;;0.89;83.90
58662;BME280;44432;49.786;22.760;2023-02-03T01:19:15;99566.04;;;0.90;84.06
58662;BME280;44432;49.786;22.760;2023-02-03T01:21:46;99573.61;;;0.90;84.10
58662;BME280;44432;49.786;22.760;2023-02-03T01:24:17;99580.59;;;0.90;84.15
58662;BME280;44432;49.786;22.760;2023-02-03T01:26:48;99588.25;;;0.89;83.73
58662;BME280;44432;49.786;22.760;2023-02-03T01:29:18;99585.69;;;0.89;83.55
58662;BME280;44432;49.786;22.760;2023-02-03T01:31:49;99587.95;;;0.89;83.43
58662;BME280;44432;49.786;22.760;2023-02-03T01:34:20;99588.26;;;0.89;83.22
58662;BME280;44432;49.786;22.760;2023-02-03T01:36:51;99593.05;;;0.88;83.08
58662;BME280;44432;49.786;22.760;2023-02-03T01:39:22;99590.06;;;0.87;82.95
58662;BME280;44432;49.786;22.760;2023-02-03T01:41:55;99594.95;;;0.85;82.58
58662;BME280;44432;49.786;22.760;2023-02-03T01:44:44;99592.79;;;0.82;82.42
58662;BME280;44432;49.786;22.760;2023-02-03T01:47:20;99594.09;;;0.79;82.02
58662;BME280;44432;49.786;22.760;2023-02-03T01:49:58;99592.62;;;0.76;81.64
58662;BME280;44432;49.786;22.760;2023-02-03T01:52:31;99591.84;;;0.74;81.34
58662;BME280;44432;49.786;22.760;2023-02-03T01:55:05;99593.84;;;0.72;81.39
58662;BME280;44432;49.786;22.760;2023-02-03T01:57:41;99600.35;;;0.71;81.39
58662;BME280;44432;49.786;22.760;2023-02-03T02:00:15;99601.95;;;0.71;81.24
58662;BME280;44432;49.786;22.760;2023-02-03T02:02:46;99603.29;;;0.72;81.31
58662;BME280;44432;49.786;22.760;2023-02-03T02:05:21;99602.92;;;0.72;81.38
58662;BME280;44432;49.786;22.760;2023-02-03T02:07:55;99603.65;;;0.73;81.47
58662;BME280;44432;49.786;22.760;2023-02-03T02:10:28;99604.09;;;0.74;81.33
58662;BME280;44432;49.786;22.760;2023-02-03T02:13:01;99605.42;;;0.75;81.04
58662;BME280;44432;49.786;22.760;2023-02-03T02:15:42;99605.16;;;0.74;81.04
58662;BME280;44432;49.786;22.760;2023-02-03T02:18:27;99605.27;;;0.75;81.10
58662;BME280;44432;49.786;22.760;2023-02-03T02:21:17;99600.95;;;0.74;80.86
58662;BME280;44432;49.786;22.760;2023-02-03T02:27:08;99603.87;;;0.67;80.22
58662;BME280;44432;49.786;22.760;2023-02-03T02:30:09;99617.79;;;0.68;79.97
58662;BME280;44432;49.786;22.760;2023-02-03T02:32:57;99618.80;;;0.67;80.02
58662;BME280;44432;49.786;22.760;2023-02-03T02:35:46;99618.55;;;0.65;79.97
58662;BME280;44432;49.786;22.760;2023-02-03T02:38:29;99616.58;;;0.66;80.02
58662;BME280;44432;49.786;22.760;2023-02-03T02:41:06;99611.42;;;0.66;79.82
58662;BME280;44432;49.786;22.760;2023-02-03T02:43:43;99609.20;;;0.65;79.78
58662;BME280;44432;49.786;22.760;2023-02-03T02:46:18;99604.13;;;0.60;79.68
58662;BME280;44432;49.786;22.760;2023-02-03T02:48:56;99612.27;;;0.64;79.46
58662;BME280;44432;49.786;22.760;2023-02-03T02:51:30;99612.58;;;0.61;78.99
58662;BME280;44432;49.786;22.760;2023-02-03T02:54:04;99620.70;;;0.59;79.12
58662;BME280;44432;49.786;22.760;2023-02-03T02:56:37;99618.23;;;0.52;79.19
58662;BME280;44432;49.786;22.760;2023-02-03T02:59:10;99627.48;;;0.53;78.84
58662;BME280;44432;49.786;22.760;2023-02-03T03:01:40;99631.36;;;0.48;79.04
58662;BME280;44432;49.786;22.760;2023-02-03T03:04:12;99638.34;;;0.44;78.80
58662;BME280;44432;49.786;22.760;2023-02-03T03:06:47;99640.02;;;0.39;78.59
58662;BME280;44432;49.786;22.760;2023-02-03T03:09:20;99649.84;;;0.34;78.67
58662;BME280;44432;49.786;22.760;2023-02-03T03:11:50;99656.09;;;0.29;78.68
58662;BME280;44432;49.786;22.760;2023-02-03T03:14:25;99658.07;;;0.25;78.71
58662;BME280;44432;49.786;22.760;2023-02-03T03:17:01;99662.13;;;0.22;78.81
58662;BME280;44432;49.786;22.760;2023-02-03T03:19:36;99664.44;;;0.20;79.11
58662;BME280;44432;49.786;22.760;2023-02-03T03:22:10;99667.69;;;0.18;79.09
58662;BME280;44432;49.786;22.760;2023-02-03T03:24:46;99671.02;;;0.18;79.20
58662;BME280;44432;49.786;22.760;2023-02-03T03:27:19;99661.02;;;0.17;79.33
58662;BME280;44432;49.786;22.760;2023-02-03T03:29:54;99655.71;;;0.17;79.56
58662;BME280;44432;49.786;22.760;2023-02-03T03:32:26;99654.78;;;0.15;79.55
58662;BME280;44432;49.786;22.760;2023-02-03T03:34:59;99658.03;;;0.14;79.67
58662;BME280;44432;49.786;22.760;2023-02-03T03:37:35;99659.29;;;0.12;79.61
58662;BME280;44432;49.786;22.760;2023-02-03T03:40:10;99659.45;;;0.10;79.85
58662;BME280;44432;49.786;22.760;2023-02-03T03:42:46;99660.58;;;0.09;79.97
58662;BME280;44432;49.786;22.760;2023-02-03T03:45:23;99666.86;;;0.08;80.04
58662;BME280;44432;49.786;22.760;2023-02-03T03:47:59;99670.41;;;0.09;80.21
58662;BME280;44432;49.786;22.760;2023-02-03T03:50:36;99667.23;;;0.08;80.19
58662;BME280;44432;49.786;22.760;2023-02-03T03:53:10;99675.71;;;0.10;80.23
58662;BME280;44432;49.786;22.760;2023-02-03T03:55:44;99679.92;;;0.11;80.24
58662;BME280;44432;49.786;22.760;2023-02-03T03:58:19;99674.76;;;0.11;80.23
58662;BME280;44432;49.786;22.760;2023-02-03T04:00:56;99673.71;;;0.07;80.22
58662;BME280;44432;49.786;22.760;2023-02-03T04:03:31;99673.09;;;0.05;80.29
58662;BME280;44432;49.786;22.760;2023-02-03T04:06:02;99676.75;;;0.02;80.20
58662;BME280;44432;49.786;22.760;2023-02-03T04:08:33;99680.73;;;0.00;80.49
58662;BME280;44432;49.786;22.760;2023-02-03T04:11:04;99681.86;;;-0.03;80.32
58662;BME280;44432;49.786;22.760;2023-02-03T04:13:35;99677.32;;;-0.04;80.35
58662;BME280;44432;49.786;22.760;2023-02-03T04:16:06;99673.00;;;-0.06;80.37
58662;BME280;44432;49.786;22.760;2023-02-03T04:18:37;99675.70;;;-0.07;80.44
58662;BME280;44432;49.786;22.760;2023-02-03T04:21:07;99674.42;;;-0.09;80.42
58662;BME280;44432;49.786;22.760;2023-02-03T04:23:38;99672.99;;;-0.10;80.39
58662;BME280;44432;49.786;22.760;2023-02-03T04:26:08;99671.48;;;-0.12;80.25
58662;BME280;44432;49.786;22.760;2023-02-03T04:28:39;99672.36;;;-0.14;80.44
58662;BME280;44432;49.786;22.760;2023-02-03T04:31:10;99669.02;;;-0.16;80.42
58662;BME280;44432;49.786;22.760;2023-02-03T04:33:40;99671.95;;;-0.16;80.46
58662;BME280;44432;49.786;22.760;2023-02-03T04:36:11;99672.80;;;-0.15;80.53
58662;BME280;44432;49.786;22.760;2023-02-03T04:38:42;99674.73;;;-0.14;80.32
58662;BME280;44432;49.786;22.760;2023-02-03T04:41:13;99674.52;;;-0.12;80.41
58662;BME280;44432;49.786;22.760;2023-02-03T04:43:44;99673.43;;;-0.09;80.18
58662;BME280;44432;49.786;22.760;2023-02-03T04:46:14;99674.42;;;-0.07;80.22
58662;BME280;44432;49.786;22.760;2023-02-03T04:48:46;99676.36;;;-0.03;80.11
58662;BME280;44432;49.786;22.760;2023-02-03T04:51:17;99674.11;;;0.01;80.19
58662;BME280;44432;49.786;22.760;2023-02-03T04:53:48;99678.89;;;0.03;80.13
58662;BME280;44432;49.786;22.760;2023-02-03T04:56:19;99679.73;;;0.06;79.86
58662;BME280;44432;49.786;22.760;2023-02-03T04:58:49;99682.08;;;0.06;79.59
58662;BME280;44432;49.786;22.760;2023-02-03T05:01:20;99676.50;;;0.07;79.54
58662;BME280;44432;49.786;22.760;2023-02-03T05:03:51;99677.52;;;0.07;79.63
58662;BME280;44432;49.786;22.760;2023-02-03T05:06:25;99681.80;;;0.08;79.54
58662;BME280;44432;49.786;22.760;2023-02-03T05:08:57;99680.88;;;0.08;79.63
58662;BME280;44432;49.786;22.760;2023-02-03T05:11:28;99679.92;;;0.11;79.66
58662;BME280;44432;49.786;22.760;2023-02-03T05:13:59;99677.33;;;0.13;79.73
58662;BME280;44432;49.786;22.760;2023-02-03T05:16:30;99681.62;;;0.14;79.74
58662;BME280;44432;49.786;22.760;2023-02-03T05:19:01;99679.73;;;0.13;79.62
58662;BME280;44432;49.786;22.760;2023-02-03T05:21:32;99682.28;;;0.14;79.71
58662;BME280;44432;49.786;22.760;2023-02-03T05:24:03;99681.31;;;0.15;79.93
58662;BME280;44432;49.786;22.760;2023-02-03T05:26:36;99679.58;;;0.15;79.91
58662;BME280;44432;49.786;22.760;2023-02-03T05:29:07;99683.37;;;0.15;80.01
58662;BME280;44432;49.786;22.760;2023-02-03T05:31:38;99686.76;;;0.16;79.99
58662;BME280;44432;49.786;22.760;2023-02-03T05:34:09;99696.49;;;0.18;80.09
58662;BME280;44432;49.786;22.760;2023-02-03T05:36:40;99699.24;;;0.18;80.05
58662;BME280;44432;49.786;22.760;2023-02-03T05:39:11;99696.25;;;0.18;80.05
58662;BME280;44432;49.786;22.760;2023-02-03T05:41:42;99700.60;;;0.18;79.97
58662;BME280;44432;49.786;22.760;2023-02-03T05:44:24;99702.91;;;0.17;79.74
58662;BME280;44432;49.786;22.760;2023-02-03T05:46:58;99704.96;;;0.16;79.73
58662;BME280;44432;49.786;22.760;2023-02-03T05:49:28;99713.08;;;0.18;79.84
58662;BME280;44432;49.786;22.760;2023-02-03T05:51:59;99712.33;;;0.19;79.51
58662;BME280;44432;49.786;22.760;2023-02-03T05:54:30;99715.84;;;0.20;79.52
58662;BME280;44432;49.786;22.760;2023-02-03T05:57:01;99714.12;;;0.22;79.70
58662;BME280;44432;49.786;22.760;2023-02-03T05:59:32;99719.40;;;0.23;79.41
58662;BME280;44432;49.786;22.760;2023-02-03T06:02:02;99716.86;;;0.24;79.09
58662;BME280;44432;49.786;22.760;2023-02-03T06:04:34;99716.94;;;0.25;79.09
58662;BME280;44432;49.786;22.760;2023-02-03T06:07:04;99717.73;;;0.26;79.15
58662;BME280;44432;49.786;22.760;2023-02-03T06:09:35;99717.92;;;0.28;79.27
58662;BME280;44432;49.786;22.760;2023-02-03T06:12:07;99721.51;;;0.28;79.23
58662;BME280;44432;49.786;22.760;2023-02-03T06:14:37;99726.87;;;0.28;79.30
58662;BME280;44432;49.786;22.760;2023-02-03T06:17:08;99731.79;;;0.27;79.12
58662;BME280;44432;49.786;22.760;2023-02-03T06:19:39;99735.70;;;0.26;79.08
58662;BME280;44432;49.786;22.760;2023-02-03T06:22:10;99737.04;;;0.25;78.77
58662;BME280;44432;49.786;22.760;2023-02-03T06:24:41;99740.47;;;0.21;78.57
58662;BME280;44432;49.786;22.760;2023-02-03T06:27:13;99745.82;;;0.18;78.17
58662;BME280;44432;49.786;22.760;2023-02-03T06:29:44;99747.89;;;0.16;77.90
58662;BME280;44432;49.786;22.760;2023-02-03T06:32:14;99744.58;;;0.12;77.74
58662;BME280;44432;49.786;22.760;2023-02-03T06:34:45;99739.14;;;0.11;77.80
58662;BME280;44432;49.786;22.760;2023-02-03T06:37:16;99733.11;;;0.13;77.56
58662;BME280;44432;49.786;22.760;2023-02-03T06:39:48;99726.80;;;0.11;77.46
58662;BME280;44432;49.786;22.760;2023-02-03T06:42:18;99727.83;;;0.14;77.59
58662;BME280;44432;49.786;22.760;2023-02-03T06:44:49;99728.71;;;0.13;77.22
58662;BME280;44432;49.786;22.760;2023-02-03T06:47:20;99724.38;;;0.09;76.86
58662;BME280;44432;49.786;22.760;2023-02-03T06:49:51;99724.93;;;0.07;76.98
58662;BME280;44432;49.786;22.760;2023-02-03T06:52:22;99723.48;;;0.06;76.87
58662;BME280;44432;49.786;22.760;2023-02-03T06:54:53;99723.72;;;0.09;77.01
58662;BME280;44432;49.786;22.760;2023-02-03T06:57:23;99727.91;;;0.13;76.91
58662;BME280;44432;49.786;22.760;2023-02-03T06:59:54;99733.73;;;0.15;77.00
58662;BME280;44432;49.786;22.760;2023-02-03T07:02:25;99732.13;;;0.18;76.93
58662;BME280;44432;49.786;22.760;2023-02-03T07:04:56;99732.92;;;0.22;76.93
58662;BME280;44432;49.786;22.760;2023-02-03T07:07:26;99727.88;;;0.25;76.73
58662;BME280;44432;49.786;22.760;2023-02-03T07:09:58;99727.30;;;0.27;76.72
58662;BME280;44432;49.786;22.760;2023-02-03T07:12:29;99724.08;;;0.28;76.50
58662;BME280;44432;49.786;22.760;2023-02-03T07:15:00;99722.95;;;0.31;76.80
58662;BME280;44432;49.786;22.760;2023-02-03T07:17:31;99726.16;;;0.34;76.69
58662;BME280;44432;49.786;22.760;2023-02-03T07:20:02;99723.50;;;0.35;76.13
58662;BME280;44432;49.786;22.760;2023-02-03T07:22:33;99721.43;;;0.33;76.22
58662;BME280;44432;49.786;22.760;2023-02-03T07:25:05;99718.98;;;0.36;76.26
58662;BME280;44432;49.786;22.760;2023-02-03T07:27:36;99718.07;;;0.38;75.96
58662;BME280;44432;49.786;22.760;2023-02-03T07:30:09;99712.73;;;0.37;75.98
58662;BME280;44432;49.786;22.760;2023-02-03T07:32:40;99706.30;;;0.40;76.15
58662;BME280;44432;49.786;22.760;2023-02-03T07:35:11;99708.58;;;0.43;76.23
58662;BME280;44432;49.786;22.760;2023-02-03T07:37:42;99701.23;;;0.48;76.29
58662;BME280;44432;49.786;22.760;2023-02-03T07:40:14;99696.00;;;0.52;76.14
58662;BME280;44432;49.786;22.760;2023-02-03T07:42:45;99694.77;;;0.52;75.95
58662;BME280;44432;49.786;22.760;2023-02-03T07:45:18;99697.80;;;0.55;76.09
58662;BME280;44432;49.786;22.760;2023-02-03T07:47:50;99688.96;;;0.53;75.78
58662;BME280;44432;49.786;22.760;2023-02-03T07:50:21;99684.18;;;0.54;75.86
58662;BME280;44432;49.786;22.760;2023-02-03T07:52:52;99678.44;;;0.56;76.07
58662;BME280;44432;49.786;22.760;2023-02-03T07:55:24;99678.06;;;0.59;75.85
58662;BME280;44432;49.786;22.760;2023-02-03T07:57:55;99671.44;;;0.59;75.97
58662;BME280;44432;49.786;22.760;2023-02-03T08:00:26;99665.20;;;0.57;75.53
58662;BME280;44432;49.786;22.760;2023-02-03T08:02:57;99663.13;;;0.57;75.47
58662;BME280;44432;49.786;22.760;2023-02-03T08:05:28;99659.92;;;0.60;75.46
58662;BME280;44432;49.786;22.760;2023-02-03T08:07:59;99657.66;;;0.64;75.36
58662;BME280;44432;49.786;22.760;2023-02-03T08:10:30;99657.09;;;0.67;75.09
58662;BME280;44432;49.786;22.760;2023-02-03T08:13:01;99651.39;;;0.70;74.96
58662;BME280;44432;49.786;22.760;2023-02-03T08:15:32;99652.37;;;0.77;75.36
58662;BME280;44432;49.786;22.760;2023-02-03T08:18:03;99648.27;;;0.83;75.39
58662;BME280;44432;49.786;22.760;2023-02-03T08:20:33;99641.50;;;0.89;74.99
58662;BME280;44432;49.786;22.760;2023-02-03T08:23:04;99642.44;;;0.93;74.63
58662;BME280;44432;49.786;22.760;2023-02-03T08:25:35;99643.98;;;0.97;74.14
58662;BME280;44432;49.786;22.760;2023-02-03T08:28:06;99645.13;;;1.01;73.88
58662;BME280;44432;49.786;22.760;2023-02-03T08:30:37;99640.70;;;1.05;73.40
58662;BME280;44432;49.786;22.760;2023-02-03T08:33:07;99634.69;;;1.12;73.34
58662;BME280;44432;49.786;22.760;2023-02-03T08:35:38;99627.08;;;1.20;73.24
58662;BME280;44432;49.786;22.760;2023-02-03T08:38:09;99623.46;;;1.29;72.99
58662;BME280;44432;49.786;22.760;2023-02-03T08:40:40;99623.39;;;1.38;72.62
58662;BME280;44432;49.786;22.760;2023-02-03T08:43:11;99617.49;;;1.45;72.25
58662;BME280;44432;49.786;22.760;2023-02-03T08:45:41;99620.59;;;1.54;72.31
58662;BME280;44432;49.786;22.760;2023-02-03T08:48:12;99615.84;;;1.64;71.72
58662;BME280;44432;49.786;22.760;2023-02-03T08:50:44;99614.41;;;1.73;71.28
58662;BME280;44432;49.786;22.760;2023-02-03T08:53:20;99612.39;;;1.82;71.15
58662;BME280;44432;49.786;22.760;2023-02-03T08:55:51;99608.05;;;1.92;70.75
58662;BME280;44432;49.786;22.760;2023-02-03T08:58:22;99606.65;;;2.03;70.05
58662;BME280;44432;49.786;22.760;2023-02-03T09:00:52;99609.89;;;2.16;69.67
58662;BME280;44432;49.786;22.760;2023-02-03T09:03:23;99612.02;;;2.31;69.29
58662;BME280;44432;49.786;22.760;2023-02-03T09:05:54;99606.05;;;2.41;68.59
58662;BME280;44432;49.786;22.760;2023-02-03T09:08:26;99605.27;;;2.48;68.20
58662;BME280;44432;49.786;22.760;2023-02-03T09:10:57;99605.70;;;2.51;67.32
58662;BME280;44432;49.786;22.760;2023-02-03T09:13:28;99605.66;;;2.46;66.39
58662;BME280;44432;49.786;22.760;2023-02-03T09:16:01;99606.17;;;2.41;66.43
58662;BME280;44432;49.786;22.760;2023-02-03T09:18:32;99600.74;;;2.33;65.81
58662;BME280;44432;49.786;22.760;2023-02-03T09:21:04;99595.23;;;2.20;65.30
58662;BME280;44432;49.786;22.760;2023-02-03T09:23:35;99589.42;;;2.17;65.51
58662;BME280;44432;49.786;22.760;2023-02-03T09:26:09;99579.24;;;2.18;65.91
58662;BME280;44432;49.786;22.760;2023-02-03T09:28:40;99572.26;;;2.20;65.80
58662;BME280;44432;49.786;22.760;2023-02-03T09:31:13;99576.46;;;2.18;65.35
58662;BME280;44432;49.786;22.760;2023-02-03T09:33:46;99578.55;;;2.20;65.19
58662;BME280;44432;49.786;22.760;2023-02-03T09:36:17;99575.71;;;2.26;65.09
58662;BME280;44432;49.786;22.760;2023-02-03T09:38:48;99569.14;;;2.31;64.71
58662;BME280;44432;49.786;22.760;2023-02-03T09:41:29;99561.74;;;2.35;64.46
58662;BME280;44432;49.786;22.760;2023-02-03T09:44:07;99555.75;;;2.40;64.48
58662;BME280;44432;49.786;22.760;2023-02-03T09:46:43;99552.60;;;2.40;64.09
58662;BME280;44432;49.786;22.760;2023-02-03T09:49:17;99553.33;;;2.48;64.41
58662;BME280;44432;49.786;22.760;2023-02-03T09:51:54;99546.48;;;2.59;64.89
58662;BME280;44432;49.786;22.760;2023-02-03T09:54:34;99543.72;;;2.73;64.54
58662;BME280;44432;49.786;22.760;2023-02-03T09:57:15;99546.40;;;2.87;64.31
58662;BME280;44432;49.786;22.760;2023-02-03T09:59:47;99543.14;;;2.94;63.58
58662;BME280;44432;49.786;22.760;2023-02-03T10:02:36;99535.41;;;3.03;63.85
58662;BME280;44432;49.786;22.760;2023-02-03T10:05:19;99538.27;;;3.11;63.90
58662;BME280;44432;49.786;22.760;2023-02-03T10:07:58;99527.78;;;3.14;63.83
58662;BME280;44432;49.786;22.760;2023-02-03T10:10:39;99525.10;;;3.21;63.33
58662;BME280;44432;49.786;22.760;2023-02-03T10:13:19;99521.71;;;3.25;63.39
58662;BME280;44432;49.786;22.760;2023-02-03T10:16:01;99519.88;;;3.28;63.33
58662;BME280;44432;49.786;22.760;2023-02-03T10:18:37;99519.25;;;3.31;62.96
58662;BME280;44432;49.786;22.760;2023-02-03T10:21:18;99517.90;;;3.25;62.26
58662;BME280;44432;49.786;22.760;2023-02-03T10:23:51;99506.77;;;3.20;62.53
58662;BME280;44432;49.786;22.760;2023-02-03T10:26:27;99506.17;;;3.18;62.50
58662;BME280;44432;49.786;22.760;2023-02-03T10:28:57;99504.25;;;3.19;62.87
58662;BME280;44432;49.786;22.760;2023-02-03T10:31:35;99490.43;;;3.22;62.71
58662;BME280;44432;49.786;22.760;2023-02-03T10:34:11;99480.98;;;3.25;62.64
58662;BME280;44432;49.786;22.760;2023-02-03T10:36:51;99474.96;;;3.30;62.73
58662;BME280;44432;49.786;22.760;2023-02-03T10:39:30;99477.02;;;3.37;62.59
58662;BME280;44432;49.786;22.760;2023-02-03T10:42:03;99464.70;;;3.43;62.33
58662;BME280;44432;49.786;22.760;2023-02-03T10:44:35;99458.35;;;3.52;62.47
58662;BME280;44432;49.786;22.760;2023-02-03T10:47:22;99457.55;;;3.59;62.27
58662;BME280;44432;49.786;22.760;2023-02-03T10:49:56;99450.45;;;3.59;61.68
58662;BME280;44432;49.786;22.760;2023-02-03T10:52:30;99441.99;;;3.58;61.62
58662;BME280;44432;49.786;22.760;2023-02-03T10:55:05;99440.52;;;3.63;61.95
58662;BME280;44432;49.786;22.760;2023-02-03T10:57:38;99430.27;;;3.71;61.65
58662;BME280;44432;49.786;22.760;2023-02-03T11:00:22;99423.75;;;3.73;61.61
58662;BME280;44432;49.786;22.760;2023-02-03T11:02:59;99426.54;;;3.79;61.71
58662;BME280;44432;49.786;22.760;2023-02-03T11:05:32;99419.36;;;3.81;61.42
58662;BME280;44432;49.786;22.760;2023-02-03T11:08:03;99409.80;;;3.80;61.42
58662;BME280;44432;49.786;22.760;2023-02-03T11:10:35;99407.52;;;3.77;61.20
58662;BME280;44432;49.786;22.760;2023-02-03T11:13:21;99399.20;;;3.71;61.15
58662;BME280;44432;49.786;22.760;2023-02-03T11:15:57;99390.17;;;3.70;61.42
58662;BME280;44432;49.786;22.760;2023-02-03T11:18:47;99380.36;;;3.75;61.62
58662;BME280;44432;49.786;22.760;2023-02-03T11:21:22;99376.92;;;3.81;61.45
58662;BME280;44432;49.786;22.760;2023-02-03T11:24:02;99367.27;;;3.85;61.35
58662;BME280;44432;49.786;22.760;2023-02-03T11:26:38;99354.42;;;3.89;61.14
58662;BME280;44432;49.786;22.760;2023-02-03T11:29:17;99344.71;;;3.90;60.40
58662;BME280;44432;49.786;22.760;2023-02-03T11:31:50;99340.30;;;3.92;60.45
58662;BME280;44432;49.786;22.760;2023-02-03T11:34:23;99337.94;;;3.97;60.10
58662;BME280;44432;49.786;22.760;2023-02-03T11:36:55;99335.36;;;4.04;59.98
58662;BME280;44432;49.786;22.760;2023-02-03T11:39:28;99325.88;;;4.08;59.48
58662;BME280;44432;49.786;22.760;2023-02-03T11:42:22;99322.71;;;4.14;59.64
58662;BME280;44432;49.786;22.760;2023-02-03T11:44:53;99305.23;;;4.10;59.26
58662;BME280;44432;49.786;22.760;2023-02-03T11:47:46;99301.52;;;4.15;59.48
58662;BME280;44432;49.786;22.760;2023-02-03T11:50:28;99286.83;;;4.13;59.03
58662;BME280;44432;49.786;22.760;2023-02-03T11:53:13;99280.55;;;4.08;58.69
58662;BME280;44432;49.786;22.760;2023-02-03T11:55:57;99276.35;;;4.06;58.91
58662;BME280;44432;49.786;22.760;2023-02-03T11:58:40;99270.33;;;4.04;58.97
58662;BME280;44432;49.786;22.760;2023-02-03T12:01:23;99260.98;;;4.03;58.97
58662;BME280;44432;49.786;22.760;2023-02-03T12:07:08;99250.15;;;4.09;59.37
58662;BME280;44432;49.786;22.760;2023-02-03T12:09:49;99247.00;;;4.17;59.11
58662;BME280;44432;49.786;22.760;2023-02-03T12:12:45;99242.60;;;4.17;58.99
58662;BME280;44432;49.786;22.760;2023-02-03T12:15:27;99233.04;;;4.20;58.94
58662;BME280;44432;49.786;22.760;2023-02-03T12:18:14;99221.09;;;4.24;58.96
58662;BME280;44432;49.786;22.760;2023-02-03T12:20:59;99215.05;;;4.30;58.50
58662;BME280;44432;49.786;22.760;2023-02-03T12:23:43;99204.79;;;4.34;58.30
58662;BME280;44432;49.786;22.760;2023-02-03T12:26:21;99197.32;;;4.33;57.58
58662;BME280;44432;49.786;22.760;2023-02-03T12:28:59;99189.84;;;4.32;57.86
58662;BME280;44432;49.786;22.760;2023-02-03T12:31:36;99180.28;;;4.35;57.61
58662;BME280;44432;49.786;22.760;2023-02-03T12:34:16;99173.19;;;4.36;57.58
58662;BME280;44432;49.786;22.760;2023-02-03T12:36:51;99160.55;;;4.39;57.40
58662;BME280;44432;49.786;22.760;2023-02-03T12:39:29;99148.70;;;4.42;57.62
58662;BME280;44432;49.786;22.760;2023-02-03T12:42:06;99136.90;;;4.46;57.65
58662;BME280;44432;49.786;22.760;2023-02-03T12:44:45;99128.70;;;4.50;57.29
58662;BME280;44432;49.786;22.760;2023-02-03T12:47:24;99114.52;;;4.49;57.19
58662;BME280;44432;49.786;22.760;2023-02-03T12:49:58;99108.52;;;4.48;56.87
58662;BME280;44432;49.786;22.760;2023-02-03T12:52:33;99103.02;;;4.39;56.24
58662;BME280;44432;49.786;22.760;2023-02-03T12:55:17;99090.20;;;4.29;56.63
58662;BME280;44432;49.786;22.760;2023-02-03T12:57:53;99087.02;;;4.28;56.85
58662;BME280;44432;49.786;22.760;2023-02-03T13:00:37;99082.34;;;4.28;56.79
58662;BME280;44432;49.786;22.760;2023-02-03T13:03:14;99074.33;;;4.25;56.61
58662;BME280;44432;49.786;22.760;2023-02-03T13:05:53;99069.88;;;4.23;56.79
58662;BME280;44432;49.786;22.760;2023-02-03T13:08:28;99062.77;;;4.24;56.93
58662;BME280;44432;49.786;22.760;2023-02-03T13:11:11;99049.64;;;4.24;56.84
58662;BME280;44432;49.786;22.760;2023-02-03T13:13:48;99051.55;;;4.26;57.03
58662;BME280;44432;49.786;22.760;2023-02-03T13:16:24;99044.83;;;4.25;56.93
58662;BME280;44432;49.786;22.760;2023-02-03T13:19:02;99034.02;;;4.22;56.72
58662;BME280;44432;49.786;22.760;2023-02-03T13:21:35;99026.19;;;4.21;56.94
58662;BME280;44432;49.786;22.760;2023-02-03T13:24:08;99011.86;;;4.19;57.02
58662;BME280;44432;49.786;22.760;2023-02-03T13:26:52;99009.71;;;4.19;57.12
58662;BME280;44432;49.786;22.760;2023-02-03T13:29:48;99001.98;;;4.18;57.21
58662;BME280;44432;49.786;22.760;2023-02-03T13:32:33;98992.21;;;4.18;57.28
58662;BME280;44432;49.786;22.760;2023-02-03T13:35:40;98987.21;;;4.15;57.02
58662;BME280;44432;49.786;22.760;2023-02-03T13:38:26;98978.71;;;4.08;57.12
58662;BME280;44432;49.786;22.760;2023-02-03T13:41:06;98975.09;;;4.10;57.23
58662;BME280;44432;49.786;22.760;2023-02-03T13:43:42;98965.91;;;4.06;56.95